Главная страница
METAR-TAF:

METAR-TAF

Аэропорты :

Hazleton, Пенсильвания, США

широта: 40-59-12N, долгота: 075-59-42W, высота над уровнем моря: 489 м

Текущие метеонаблюдения

Эта сводка был подготовлена 4 часа и 29 минут назад, в 18:15 UTC
Штиль
Температура 18°C
Влажность 83%
Давление 1020 hPa
Видимость: 2.8 км
Отдельные облака на высоте 1600 фута
Рассеянная облачность на высоте 2700 фута
Сплошная облачность на высоте 3900 фута

METAR: KHZL 231815Z AUTO 00000KT 1 3/4SM /VCTSRA SCT016 BKN027 OVC039 18/15 A3011 RMK AO2 VIS 1/2V5 LTG DSNT ALQS P0012

Время: 18:44 (22:44 UTC)


TAF: отсутствует

Метеонаблюдения и прогнозы для более 4000 аэропортов (сводки METAR и TAF).

Имеющиеся станции представлены на карте желтыми и красными точками.

Чтобы увидеть название станции, наведите на нее мышь.

Затем щелкните, чтобы увидеть метеонаблюдения и метеопрогнозы.

Управление картой: чтобы увеличить масштаб, щелкните зеленые кнопки с черным крестиком; чтобы уменьшить масштаб, щелкните зеленую кнопку с тире; для просмотра соседних карт щелкайте зеленые стрелки.


METAR-TAF: